Time;durP1;ratioP1;P1;durP2;ratioP2;P2;SDS_P1;SDS_P2;PMS_P1;PMS_P2;Temp;Humidity;BMP_temperature;BMP_pressure;BME280_temperature;BME280_humidity;BME280_pressure;Samples;Min_cycle;Max_cycle;Signal;HPM_P1;HPM_P2
2022/12/23 00:02:15;;;;;;;5.10;2.92;;;10.30;94.10;;;;;;5053727;28;20187;-77
2022/12/23 00:04:41;;;;;;;5.00;2.83;;;10.30;94.10;;;;;;4991860;28;20089;-77
2022/12/23 00:07:07;;;;;;;5.80;2.80;;;10.30;94.10;;;;;;5011277;28;20050;-78
2022/12/23 00:09:32;;;;;;;4.63;2.83;;;10.30;94.10;;;;;;5011154;28;20126;-77
2022/12/23 00:17:16;;;;;;;5.57;2.92;;;10.30;94.10;;;;;;5008439;28;20046;-77
2022/12/23 00:19:42;;;;;;;3.15;2.03;;;10.30;94.10;;;;;;5010352;28;20120;-78
2022/12/23 00:22:07;;;;;;;4.82;2.58;;;10.40;94.10;;;;;;5010385;28;20042;-77
2022/12/23 00:24:33;;;;;;;5.43;2.20;;;10.30;94.10;;;;;;5028675;28;20078;-77
2022/12/23 00:26:58;;;;;;;4.93;2.45;;;10.30;94.10;;;;;;5055401;28;20055;-77
2022/12/23 00:29:24;;;;;;;4.55;2.63;;;10.30;94.10;;;;;;5106856;28;20404;-77
2022/12/23 00:31:50;;;;;;;5.63;2.67;;;10.30;94.10;;;;;;5098588;28;20493;-77
2022/12/23 00:34:16;;;;;;;4.28;2.50;;;10.30;94.10;;;;;;5116122;28;20035;-78
2022/12/23 00:36:41;;;;;;;7.68;3.15;;;10.40;94.20;;;;;;5133888;28;20047;-76
2022/12/23 00:44:27;;;;;;;5.75;3.22;;;10.30;94.10;;;;;;5117285;28;20050;-76
2022/12/23 00:46:53;;;;;;;5.72;3.10;;;10.30;94.20;;;;;;5133649;28;20043;-76
2022/12/23 00:51:58;;;;;;;5.20;2.70;;;10.30;94.10;;;;;;5135406;28;20070;-76
2022/12/23 00:54:24;;;;;;;6.47;3.10;;;10.30;94.20;;;;;;5101463;28;20084;-76
2022/12/23 00:56:50;;;;;;;5.20;2.95;;;10.30;94.20;;;;;;5084351;28;20039;-76
2022/12/23 00:59:16;;;;;;;6.05;2.80;;;10.30;94.20;;;;;;5137170;28;20053;-77
2022/12/23 01:06:59;;;;;;;6.18;3.00;;;10.30;94.20;;;;;;5120282;28;20078;-77
2022/12/23 01:09:25;;;;;;;4.75;2.50;;;10.40;94.20;;;;;;5118473;28;20066;-76
2022/12/23 01:11:51;;;;;;;6.43;3.13;;;10.30;94.20;;;;;;5118524;28;20455;-76
2022/12/23 01:14:17;;;;;;;6.05;3.10;;;10.40;94.20;;;;;;5136827;28;20039;-76
2022/12/23 01:16:43;;;;;;;7.32;3.78;;;10.30;94.20;;;;;;5100974;28;20039;-76
2022/12/23 01:19:08;;;;;;;5.57;3.03;;;10.30;94.20;;;;;;5117804;28;20122;-77
2022/12/23 01:21:34;;;;;;;6.32;3.00;;;10.30;94.20;;;;;;5118337;28;20455;-76
2022/12/23 01:24:00;;;;;;;6.65;3.00;;;10.30;94.20;;;;;;5136352;28;20488;-77
2022/12/23 01:26:26;;;;;;;5.43;3.17;;;10.30;94.20;;;;;;5117737;28;20039;-77
2022/12/23 01:28:55;;;;;;;5.20;2.63;;;10.30;94.20;;;;;;5136455;28;20066;-77
2022/12/23 01:31:22;;;;;;;5.70;2.78;;;10.30;94.20;;;;;;5136044;28;20394;-76
2022/12/23 01:33:48;;;;;;;5.45;2.55;;;10.20;94.20;;;;;;5118468;28;20041;-76
2022/12/23 01:36:14;;;;;;;5.88;2.92;;;10.30;94.50;;;;;;5136658;28;20148;-76
2022/12/23 01:38:39;;;;;;;5.07;2.75;;;10.20;94.20;;;;;;5117728;28;20039;-76
2022/12/23 01:41:06;;;;;;;4.32;2.60;;;10.20;94.20;;;;;;5100545;28;20074;-77
2022/12/23 01:43:50;;;;;;;4.88;2.63;;;10.20;94.20;;;;;;5118119;28;20561;-76
2022/12/23 01:46:16;;;;;;;5.15;2.50;;;10.20;94.20;;;;;;5135883;28;20060;-76
2022/12/23 01:48:46;;;;;;;4.50;2.30;;;10.20;94.20;;;;;;5083584;28;20035;-76
2022/12/23 01:51:17;;;;;;;3.13;1.92;;;10.20;94.30;;;;;;5135665;28;20039;-77
2022/12/23 01:53:47;;;;;;;5.43;2.30;;;10.30;94.30;;;;;;5135736;28;20035;-76
2022/12/23 01:56:17;;;;;;;5.47;2.50;;;10.20;94.30;;;;;;5136166;28;20162;-76
2022/12/23 01:58:49;;;;;;;5.22;2.53;;;10.20;94.30;;;;;;5135597;28;20035;-76
2022/12/23 02:04:00;;;;;;;4.75;2.33;;;10.20;94.30;;;;;;5135491;28;20508;-77
2022/12/23 02:09:21;;;;;;;7.03;3.03;;;10.20;94.30;;;;;;5119102;28;20517;-77
2022/12/23 02:12:11;;;;;;;5.37;2.97;;;10.20;94.30;;;;;;5117619;28;20269;-78
2022/12/23 02:18:11;;;;;;;4.90;2.80;;;10.20;94.30;;;;;;5135093;28;20039;-77
2022/12/23 02:21:00;;;;;;;6.63;3.17;;;10.20;94.30;;;;;;5119163;28;20047;-76
2022/12/23 02:24:02;;;;;;;5.47;2.38;;;10.10;94.30;;;;;;5116775;28;20053;-77
2022/12/23 02:26:55;;;;;;;4.78;2.33;;;10.20;94.30;;;;;;5117228;28;20054;-77
2022/12/23 02:29:52;;;;;;;4.68;2.50;;;10.20;94.30;;;;;;5134913;28;20043;-77
2022/12/23 02:32:52;;;;;;;4.47;2.25;;;10.20;94.30;;;;;;5134793;28;20082;-76
2022/12/23 02:35:52;;;;;;;4.00;2.40;;;10.20;94.30;;;;;;5134973;28;20497;-76
2022/12/23 02:38:26;;;;;;;3.80;2.17;;;10.10;94.30;;;;;;5121817;28;20043;-77
2022/12/23 02:41:03;;;;;;;4.65;2.60;;;10.10;94.30;;;;;;5134990;28;20046;-76
2022/12/23 02:43:40;;;;;;;5.47;2.53;;;10.10;94.30;;;;;;5135317;28;20546;-77
2022/12/23 02:46:12;;;;;;;4.97;2.55;;;10.10;94.40;;;;;;5116518;28;20043;-76
2022/12/23 02:49:02;;;;;;;4.63;2.30;;;10.10;94.30;;;;;;5135371;28;20047;-77
2022/12/23 02:51:33;;;;;;;4.60;1.98;;;10.10;94.40;;;;;;5134677;28;20114;-77
2022/12/23 02:54:04;;;;;;;4.43;2.33;;;10.10;94.40;;;;;;5135066;28;20050;-77
2022/12/23 02:56:32;;;;;;;4.00;2.13;;;10.20;94.40;;;;;;5134622;28;20074;-77
2022/12/23 02:59:03;;;;;;;5.00;2.35;;;10.10;94.40;;;;;;5116098;28;20732;-78
2022/12/23 03:01:32;;;;;;;4.82;2.20;;;10.10;94.40;;;;;;5134483;28;20397;-77
2022/12/23 03:03:58;;;;;;;4.40;2.40;;;10.10;94.40;;;;;;5099227;28;20088;-77
2022/12/23 03:06:30;;;;;;;5.13;2.55;;;10.10;94.40;;;;;;5134376;28;20070;-77
2022/12/23 03:08:58;;;;;;;5.10;2.70;;;10.20;94.40;;;;;;5099112;28;20039;-77
2022/12/23 03:11:40;;;;;;;6.07;2.60;;;10.10;94.40;;;;;;5099030;28;20393;-77
2022/12/23 03:14:34;;;;;;;6.45;2.35;;;10.10;94.40;;;;;;5117067;28;20072;-77
2022/12/23 03:17:19;;;;;;;5.75;2.65;;;10.10;94.40;;;;;;5134401;28;20104;-77
2022/12/23 03:20:02;;;;;;;5.75;2.58;;;10.10;94.40;;;;;;5100076;28;20047;-77
2022/12/23 03:22:39;;;;;;;6.38;2.42;;;10.10;94.40;;;;;;5115576;28;20119;-77
2022/12/23 03:25:15;;;;;;;6.45;2.50;;;10.10;94.40;;;;;;5134456;28;20051;-77
2022/12/23 03:27:50;;;;;;;4.50;2.17;;;10.10;94.40;;;;;;5116457;28;20039;-77
2022/12/23 03:30:19;;;;;;;5.10;2.05;;;10.20;94.40;;;;;;5133967;28;20063;-77
2022/12/23 03:32:53;;;;;;;5.28;2.53;;;10.10;94.40;;;;;;5115376;28;20081;-76
2022/12/23 03:35:26;;;;;;;4.65;2.15;;;10.10;94.50;;;;;;5134435;28;20505;-77
2022/12/23 03:37:53;;;;;;;4.93;2.25;;;10.00;94.40;;;;;;5082081;28;20047;-77
2022/12/23 03:40:42;;;;;;;4.40;2.15;;;10.10;94.50;;;;;;5133851;28;20072;-77
2022/12/23 03:43:29;;;;;;;4.13;1.98;;;10.10;94.50;;;;;;5133638;28;20043;-77
2022/12/23 03:46:02;;;;;;;3.17;1.70;;;10.10;94.50;;;;;;5133724;28;20397;-76
2022/12/23 03:48:34;;;;;;;3.35;1.83;;;10.00;94.50;;;;;;5115484;28;20160;-76
2022/12/23 03:51:05;;;;;;;2.78;1.65;;;10.00;94.50;;;;;;5116069;28;20058;-77
2022/12/23 03:53:37;;;;;;;3.22;1.50;;;9.90;94.50;;;;;;5134297;28;20043;-76
2022/12/23 03:56:12;;;;;;;3.67;1.55;;;9.90;94.50;;;;;;5133890;28;20039;-77
2022/12/23 03:58:56;;;;;;;3.38;1.52;;;10.00;94.50;;;;;;5099082;28;20058;-76
2022/12/23 04:01:49;;;;;;;3.55;1.70;;;10.00;94.50;;;;;;5115220;28;20477;-77
2022/12/23 04:04:44;;;;;;;3.63;1.70;;;9.90;94.50;;;;;;5134200;28;20118;-76
2022/12/23 04:07:17;;;;;;;2.72;1.73;;;9.90;94.50;;;;;;5100834;28;20030;-76
2022/12/23 04:09:43;;;;;;;3.90;1.75;;;9.90;94.50;;;;;;5114999;28;20047;-76
2022/12/23 04:12:09;;;;;;;3.95;1.90;;;9.80;94.50;;;;;;5115070;28;20079;-76
2022/12/23 04:14:36;;;;;;;3.75;1.77;;;9.80;94.50;;;;;;5115637;28;20042;-76
2022/12/23 04:17:02;;;;;;;3.45;1.60;;;9.80;94.50;;;;;;5133274;28;20073;-77
2022/12/23 04:19:28;;;;;;;3.33;1.83;;;9.80;94.50;;;;;;5114967;28;20062;-77
2022/12/23 04:21:56;;;;;;;3.45;1.70;;;9.80;94.50;;;;;;5115569;28;20039;-77
2022/12/23 04:24:22;;;;;;;3.17;1.60;;;9.80;94.50;;;;;;5114993;27;20039;-77
2022/12/23 04:26:48;;;;;;;2.10;1.33;;;9.80;94.50;;;;;;5133185;28;20047;-76
2022/12/23 04:29:13;;;;;;;2.20;1.35;;;9.70;94.50;;;;;;5114830;28;20095;-77
2022/12/23 04:31:39;;;;;;;3.40;1.80;;;9.80;94.50;;;;;;5133181;28;20170;-77
2022/12/23 04:34:04;;;;;;;3.30;1.65;;;9.80;94.50;;;;;;5115487;28;20122;-76
2022/12/23 04:36:30;;;;;;;3.00;1.63;;;9.70;94.50;;;;;;5133653;28;20482;-76
2022/12/23 04:38:56;;;;;;;3.40;1.80;;;9.70;94.50;;;;;;5133031;28;20087;-77
2022/12/23 04:41:23;;;;;;;2.90;1.35;;;9.80;94.60;;;;;;5098186;28;20039;-76
2022/12/23 04:43:48;;;;;;;2.63;1.40;;;9.70;94.50;;;;;;5098194;28;20039;-77
2022/12/23 04:46:14;;;;;;;2.58;1.30;;;9.70;94.50;;;;;;5133038;28;20031;-77
2022/12/23 04:48:39;;;;;;;2.22;1.20;;;9.70;94.50;;;;;;5115108;28;20062;-77
2022/12/23 04:51:05;;;;;;;2.05;1.10;;;9.70;94.60;;;;;;5132914;28;20118;-77
2022/12/23 04:53:31;;;;;;;3.65;1.80;;;9.70;94.60;;;;;;5114919;28;20043;-76
2022/12/23 04:55:56;;;;;;;3.67;1.75;;;9.70;94.60;;;;;;5133494;28;20126;-76
2022/12/23 04:58:23;;;;;;;3.97;1.85;;;9.70;94.50;;;;;;5097565;28;20485;-76
2022/12/23 05:00:59;;;;;;;3.60;1.58;;;9.70;94.50;;;;;;5114800;28;20039;-76
2022/12/23 05:03:25;;;;;;;2.78;1.40;;;9.70;94.50;;;;;;5132788;28;20054;-77
2022/12/23 05:05:50;;;;;;;2.75;1.33;;;9.70;94.50;;;;;;5097676;28;20039;-76
2022/12/23 05:08:16;;;;;;;2.47;1.40;;;9.70;94.50;;;;;;5133288;28;20483;-77
2022/12/23 05:10:44;;;;;;;2.83;1.50;;;9.70;94.60;;;;;;5114410;28;20442;-77
2022/12/23 05:13:09;;;;;;;2.83;1.48;;;9.70;94.60;;;;;;5114323;28;20440;-77
2022/12/23 05:15:35;;;;;;;3.15;1.60;;;9.70;94.60;;;;;;5114516;28;20056;-77
2022/12/23 05:18:01;;;;;;;4.43;1.52;;;9.70;94.50;;;;;;5132762;28;20039;-77
2022/12/23 05:20:26;;;;;;;4.25;1.60;;;9.70;94.60;;;;;;5114265;28;20051;-77
2022/12/23 05:22:52;;;;;;;3.95;1.70;;;9.60;94.50;;;;;;5132794;28;20043;-77
2022/12/23 05:25:18;;;;;;;4.05;1.83;;;9.70;94.60;;;;;;5132504;28;20115;-77
2022/12/23 05:27:43;;;;;;;3.65;1.70;;;9.70;94.60;;;;;;5114075;28;20502;-77
2022/12/23 05:30:10;;;;;;;2.63;1.40;;;9.60;94.60;;;;;;5097021;28;20043;-77
2022/12/23 05:32:35;;;;;;;3.40;1.60;;;9.70;94.60;;;;;;5132380;28;20035;-76
2022/12/23 05:35:01;;;;;;;3.78;1.70;;;9.60;94.60;;;;;;5132922;28;20051;-77
2022/12/23 05:37:27;;;;;;;3.17;1.40;;;9.60;94.60;;;;;;5134270;27;20477;-77
2022/12/23 05:39:52;;;;;;;2.70;1.35;;;9.60;94.60;;;;;;5117477;28;20069;-76
2022/12/23 05:42:18;;;;;;;4.10;1.65;;;9.60;94.60;;;;;;5117325;28;20078;-77
2022/12/23 05:44:44;;;;;;;4.20;1.85;;;9.60;94.60;;;;;;5135975;28;20043;-77
2022/12/23 05:47:10;;;;;;;3.13;1.50;;;9.60;94.60;;;;;;5117459;28;20100;-77
2022/12/23 05:49:36;;;;;;;2.22;1.20;;;9.60;94.60;;;;;;5135974;28;20383;-76
2022/12/23 05:52:02;;;;;;;4.13;1.63;;;9.60;94.60;;;;;;5136224;28;20045;-76
2022/12/23 05:54:27;;;;;;;2.97;1.42;;;9.50;94.60;;;;;;5136302;28;20042;-77
2022/12/23 05:56:53;;;;;;;2.78;1.48;;;9.60;94.60;;;;;;5136285;28;20186;-77
2022/12/23 05:59:18;;;;;;;3.22;1.60;;;9.60;94.60;;;;;;5135711;28;20035;-77
2022/12/23 06:01:44;;;;;;;4.18;1.90;;;9.50;94.50;;;;;;5135632;28;20031;-76
2022/12/23 06:04:10;;;;;;;3.03;1.60;;;9.50;94.60;;;;;;5117279;28;20042;-77
2022/12/23 06:06:36;;;;;;;2.10;1.17;;;9.50;94.60;;;;;;5136055;28;20047;-77
2022/12/23 06:09:02;;;;;;;2.60;1.42;;;9.50;94.60;;;;;;5136013;28;20084;-77
2022/12/23 06:11:27;;;;;;;2.83;1.33;;;9.50;94.60;;;;;;5117097;28;20039;-77
2022/12/23 06:13:53;;;;;;;2.78;1.40;;;9.40;94.60;;;;;;5117680;28;20088;-77
2022/12/23 06:16:19;;;;;;;2.22;1.38;;;9.40;94.60;;;;;;5117064;28;20039;-77
2022/12/23 06:18:44;;;;;;;3.05;1.50;;;9.40;94.60;;;;;;5117204;28;20035;-77
2022/12/23 06:21:10;;;;;;;2.20;1.20;;;9.40;94.60;;;;;;5100039;28;20047;-77
2022/12/23 06:23:35;;;;;;;1.60;1.08;;;9.40;94.60;;;;;;5100005;28;20035;-77
2022/12/23 06:26:01;;;;;;;1.17;1.00;;;9.40;94.60;;;;;;5135379;28;20045;-77
2022/12/23 06:28:28;;;;;;;2.90;1.40;;;9.40;94.60;;;;;;5117060;28;20512;-77
2022/12/23 06:30:55;;;;;;;3.13;1.30;;;9.40;94.60;;;;;;5116664;28;20486;-77
2022/12/23 06:33:21;;;;;;;2.80;1.27;;;9.40;94.60;;;;;;5135167;28;20047;-77
2022/12/23 06:35:47;;;;;;;2.80;1.30;;;9.40;94.60;;;;;;5116661;28;20550;-77
2022/12/23 06:38:13;;;;;;;2.35;1.30;;;9.40;94.60;;;;;;5116658;28;20063;-77
2022/12/23 06:40:39;;;;;;;2.60;1.20;;;9.40;94.60;;;;;;5099634;28;20046;-77
2022/12/23 06:43:05;;;;;;;2.50;1.27;;;9.40;94.60;;;;;;5134911;28;20073;-77
2022/12/23 06:45:30;;;;;;;1.83;0.90;;;9.40;94.60;;;;;;5116514;28;20043;-77
2022/12/23 06:47:56;;;;;;;3.28;1.30;;;9.40;94.60;;;;;;5099663;28;20062;-77
2022/12/23 06:50:21;;;;;;;1.67;0.90;;;9.40;94.60;;;;;;5134936;28;20398;-77
2022/12/23 06:52:48;;;;;;;2.55;1.13;;;9.30;94.60;;;;;;5099268;28;20035;-77
2022/12/23 06:55:14;;;;;;;2.72;1.30;;;9.30;94.60;;;;;;5116168;28;20050;-77
2022/12/23 06:57:39;;;;;;;1.92;1.00;;;9.30;94.60;;;;;;5099264;28;20039;-77
2022/12/23 07:00:06;;;;;;;3.20;1.30;;;9.30;94.60;;;;;;5116289;28;20439;-78
2022/12/23 07:02:32;;;;;;;2.05;1.00;;;9.30;94.60;;;;;;5135117;28;20565;-77
2022/12/23 07:04:58;;;;;;;2.85;1.30;;;9.30;94.70;;;;;;5116108;28;20125;-77
2022/12/23 07:07:23;;;;;;;2.05;1.02;;;9.30;94.60;;;;;;5116584;28;20077;-77
2022/12/23 07:09:49;;;;;;;2.80;1.25;;;9.30;94.60;;;;;;5117691;28;20051;-76
2022/12/23 07:12:15;;;;;;;1.58;1.00;;;9.30;94.60;;;;;;5101238;28;20095;-77
2022/12/23 07:14:40;;;;;;;2.63;1.20;;;9.30;94.90;;;;;;5116822;28;20042;-77
2022/12/23 07:17:06;;;;;;;2.40;1.15;;;9.30;94.60;;;;;;5135183;28;20127;-76
2022/12/23 07:19:32;;;;;;;2.10;1.10;;;9.30;94.60;;;;;;5119485;28;20086;-77
2022/12/23 07:21:58;;;;;;;2.78;1.30;;;9.30;94.60;;;;;;5115775;28;20420;-77
2022/12/23 07:24:24;;;;;;;2.47;1.20;;;9.30;94.60;;;;;;5134035;28;20049;-77
2022/12/23 07:26:50;;;;;;;2.33;1.15;;;9.20;94.60;;;;;;5134570;28;20091;-78
2022/12/23 07:29:16;;;;;;;2.75;1.08;;;9.30;94.60;;;;;;5134642;28;20121;-77
2022/12/23 07:31:41;;;;;;;1.92;1.20;;;9.30;94.60;;;;;;5134704;28;20122;-77
2022/12/23 07:34:07;;;;;;;2.25;1.17;;;9.30;94.60;;;;;;5116436;28;20525;-77
2022/12/23 07:36:33;;;;;;;2.92;1.20;;;9.30;94.60;;;;;;5133988;28;20082;-77
2022/12/23 07:38:58;;;;;;;1.40;0.90;;;9.30;94.60;;;;;;5134591;28;20081;-77
2022/12/23 07:41:24;;;;;;;2.03;1.08;;;9.30;94.60;;;;;;5098816;28;20035;-77
2022/12/23 07:43:50;;;;;;;1.52;0.90;;;9.30;94.60;;;;;;5134007;28;20035;-77
2022/12/23 07:46:18;;;;;;;1.70;0.93;;;9.20;94.60;;;;;;5134170;28;20034;-77
2022/12/23 07:48:44;;;;;;;1.70;0.95;;;9.20;94.60;;;;;;5116181;28;20043;-77
2022/12/23 07:51:09;;;;;;;1.73;1.05;;;9.30;94.60;;;;;;5115988;28;20535;-76
2022/12/23 07:53:35;;;;;;;2.00;1.00;;;9.30;94.60;;;;;;5115403;28;20074;-76
2022/12/23 07:56:01;;;;;;;1.50;0.90;;;9.30;94.60;;;;;;5133776;28;20027;-78
2022/12/23 07:58:26;;;;;;;1.45;0.85;;;9.40;94.60;;;;;;5134211;28;20039;-76
2022/12/23 08:01:01;;;;;;;1.35;0.70;;;9.30;94.60;;;;;;5114920;28;20139;-76
2022/12/23 08:03:27;;;;;;;1.08;0.77;;;9.30;94.60;;;;;;5131624;28;20122;-76
2022/12/23 08:06:03;;;;;;;0.70;0.68;;;9.30;94.50;;;;;;5115428;28;20039;-77
2022/12/23 08:08:29;;;;;;;1.65;0.95;;;9.30;94.60;;;;;;5133673;28;20506;-77
2022/12/23 08:11:00;;;;;;;1.48;0.80;;;9.30;94.50;;;;;;5115187;28;20126;-77
2022/12/23 08:13:26;;;;;;;1.13;0.60;;;9.30;94.50;;;;;;5133507;28;20032;-77
2022/12/23 08:15:54;;;;;;;1.02;0.60;;;9.30;94.50;;;;;;5133392;28;20122;-75
2022/12/23 08:18:20;;;;;;;1.30;0.85;;;9.30;94.50;;;;;;5133509;28;20486;-76
2022/12/23 08:20:54;;;;;;;2.05;0.95;;;9.30;94.50;;;;;;5097811;28;20050;-76
2022/12/23 08:23:20;;;;;;;1.42;0.68;;;9.30;94.50;;;;;;5114648;28;20035;-74
2022/12/23 08:25:46;;;;;;;1.63;0.90;;;9.40;94.50;;;;;;5134432;28;20529;-77
2022/12/23 08:28:11;;;;;;;1.33;0.68;;;9.30;94.50;;;;;;5133567;28;20086;-76
2022/12/23 08:30:37;;;;;;;2.08;0.98;;;9.40;94.50;;;;;;5134649;28;20058;-77
2022/12/23 08:33:03;;;;;;;1.23;0.88;;;9.40;94.50;;;;;;5100821;28;20077;-75
2022/12/23 08:35:29;;;;;;;1.08;0.73;;;9.40;94.50;;;;;;5097882;28;20039;-74
2022/12/23 08:37:55;;;;;;;0.90;0.60;;;9.40;94.50;;;;;;5097962;28;20047;-74
2022/12/23 08:40:20;;;;;;;1.70;1.02;;;9.40;94.60;;;;;;5097953;28;20508;-75
2022/12/23 08:42:46;;;;;;;1.13;0.82;;;9.40;94.50;;;;;;5097706;28;20046;-74
2022/12/23 08:45:12;;;;;;;0.88;0.65;;;9.40;94.50;;;;;;5114713;28;20047;-75
2022/12/23 08:47:37;;;;;;;1.05;0.70;;;9.50;94.60;;;;;;5133515;28;20046;-75
2022/12/23 08:50:03;;;;;;;1.58;0.80;;;9.40;94.50;;;;;;5097532;28;20066;-74
2022/12/23 08:52:29;;;;;;;1.58;0.88;;;9.40;94.50;;;;;;5114919;28;20034;-75
2022/12/23 08:54:55;;;;;;;1.83;0.93;;;9.40;94.50;;;;;;5114975;28;20039;-73
2022/12/23 08:57:20;;;;;;;0.80;0.55;;;9.40;94.50;;;;;;5114423;28;20035;-74
2022/12/23 08:59:46;;;;;;;1.00;0.75;;;9.50;94.50;;;;;;5081115;28;20031;-74
2022/12/23 09:02:12;;;;;;;1.10;0.60;;;9.50;94.50;;;;;;5114261;28;20050;-77
2022/12/23 09:04:37;;;;;;;1.00;0.70;;;9.40;94.40;;;;;;5080378;28;20095;-74
2022/12/23 09:07:03;;;;;;;1.70;1.00;;;9.50;94.50;;;;;;5097431;28;20043;-73
2022/12/23 09:09:29;;;;;;;1.40;0.73;;;9.50;94.50;;;;;;5114329;28;20138;-74
2022/12/23 09:11:54;;;;;;;1.55;0.90;;;9.50;94.50;;;;;;5115068;28;20129;-74
2022/12/23 09:14:20;;;;;;;1.60;0.90;;;9.50;94.50;;;;;;5136335;28;20126;-74
2022/12/23 09:16:49;;;;;;;2.13;1.00;;;9.50;94.50;;;;;;5117980;28;20067;-73
2022/12/23 09:19:14;;;;;;;1.42;0.82;;;9.50;94.50;;;;;;5100711;28;20104;-73
2022/12/23 09:21:40;;;;;;;2.17;0.90;;;9.50;94.50;;;;;;5117942;28;20478;-74
2022/12/23 09:24:06;;;;;;;1.38;0.80;;;9.60;94.50;;;;;;5118551;28;20035;-75
2022/12/23 09:26:31;;;;;;;2.95;1.27;;;9.50;94.40;;;;;;5117887;28;20533;-74
2022/12/23 09:28:58;;;;;;;2.55;1.10;;;9.50;94.70;;;;;;5118469;28;20047;-75
2022/12/23 09:31:24;;;;;;;1.98;0.98;;;9.60;94.50;;;;;;5117864;28;20402;-75
2022/12/23 09:33:51;;;;;;;2.05;1.20;;;9.60;94.40;;;;;;5083671;28;20035;-75
2022/12/23 09:36:17;;;;;;;2.00;1.10;;;9.60;94.40;;;;;;5100498;28;20039;-76
2022/12/23 09:38:43;;;;;;;1.92;0.88;;;9.60;94.40;;;;;;5100345;28;20043;-76
2022/12/23 09:41:34;;;;;;;2.33;1.00;;;9.60;94.40;;;;;;5100459;28;20038;-75
2022/12/23 09:44:27;;;;;;;1.98;0.90;;;9.60;94.40;;;;;;5117339;28;20043;-76
2022/12/23 09:46:58;;;;;;;2.25;1.15;;;9.60;94.40;;;;;;5104811;28;20066;-75
2022/12/23 09:49:24;;;;;;;1.63;0.98;;;9.60;94.40;;;;;;5117552;28;20486;-76
2022/12/23 09:51:54;;;;;;;2.33;1.13;;;9.60;94.40;;;;;;5083672;28;20111;-75
2022/12/23 09:54:29;;;;;;;2.85;1.17;;;9.60;94.40;;;;;;5117789;28;20041;-76
2022/12/23 09:57:26;;;;;;;2.92;1.27;;;9.70;94.50;;;;;;5083776;28;20039;-76
2022/12/23 10:00:11;;;;;;;4.35;1.48;;;9.70;94.40;;;;;;5135341;28;20058;-76
2022/12/23 10:03:06;;;;;;;2.92;1.08;;;9.70;94.40;;;;;;5101938;28;20540;-75
2022/12/23 10:05:51;;;;;;;2.30;1.00;;;9.70;94.40;;;;;;5135667;28;20130;-75
2022/12/23 10:08:30;;;;;;;2.65;1.00;;;9.70;94.40;;;;;;5100063;28;20046;-76
2022/12/23 10:11:03;;;;;;;2.72;1.20;;;9.70;94.40;;;;;;5100047;28;20143;-76
2022/12/23 10:13:51;;;;;;;1.42;0.80;;;9.70;94.40;;;;;;5089833;28;20056;-76
2022/12/23 10:16:29;;;;;;;3.53;1.40;;;9.70;94.40;;;;;;5124194;28;20474;-77
2022/12/23 10:19:03;;;;;;;2.78;1.30;;;9.70;94.40;;;;;;5101619;28;20035;-77
2022/12/23 10:21:43;;;;;;;2.17;1.15;;;9.80;94.40;;;;;;5102254;28;20035;-77
2022/12/23 10:24:20;;;;;;;2.35;1.13;;;9.80;94.40;;;;;;5136008;27;20470;-76
2022/12/23 10:26:54;;;;;;;4.10;1.48;;;9.80;94.40;;;;;;5121959;28;20059;-77
2022/12/23 10:29:23;;;;;;;2.63;1.30;;;9.80;94.50;;;;;;5124642;28;20047;-77
2022/12/23 10:32:10;;;;;;;3.05;1.42;;;9.90;94.40;;;;;;5121191;28;20046;-77
2022/12/23 10:34:55;;;;;;;3.50;1.33;;;9.80;94.40;;;;;;5119710;28;20556;-78
2022/12/23 10:37:37;;;;;;;2.75;1.27;;;9.90;94.40;;;;;;5129610;28;20484;-77
2022/12/23 10:40:25;;;;;;;3.25;1.42;;;9.90;94.40;;;;;;5104539;28;20043;-77
2022/12/23 10:43:10;;;;;;;2.72;1.30;;;9.80;94.30;;;;;;5146258;28;20130;-77
2022/12/23 10:45:55;;;;;;;2.80;1.50;;;9.90;94.30;;;;;;5145338;28;20115;-77
2022/12/23 10:48:42;;;;;;;2.80;1.15;;;10.00;94.40;;;;;;5116837;28;20039;-77
2022/12/23 10:51:25;;;;;;;2.33;1.20;;;9.90;94.30;;;;;;5140252;28;20808;-76
2022/12/23 10:54:04;;;;;;;2.85;1.38;;;9.90;94.30;;;;;;5121687;28;20126;-77
2022/12/23 10:56:31;;;;;;;3.25;1.33;;;9.90;94.30;;;;;;5101322;28;20035;-78
2022/12/23 10:58:59;;;;;;;3.33;1.33;;;10.00;94.30;;;;;;5099426;28;20042;-78
2022/12/23 11:01:28;;;;;;;3.05;1.42;;;10.00;94.30;;;;;;5099640;28;20051;-79
2022/12/23 11:04:15;;;;;;;3.20;1.40;;;10.00;94.30;;;;;;5099340;28;20482;-77
2022/12/23 11:06:46;;;;;;;2.55;1.45;;;10.00;94.30;;;;;;5134633;28;20118;-77
2022/12/23 11:09:18;;;;;;;1.85;1.00;;;10.10;94.30;;;;;;5116302;28;20498;-77
2022/12/23 11:12:04;;;;;;;2.85;1.42;;;10.00;94.30;;;;;;5099716;28;20035;-76
2022/12/23 11:14:35;;;;;;;3.30;1.50;;;10.10;94.30;;;;;;5116228;28;20050;-77
2022/12/23 11:17:01;;;;;;;3.13;1.40;;;10.00;94.30;;;;;;5114664;28;20045;-78
2022/12/23 11:19:27;;;;;;;2.85;1.35;;;10.10;94.30;;;;;;5099545;28;20043;-78
2022/12/23 11:21:55;;;;;;;3.97;1.73;;;10.10;94.30;;;;;;5099153;28;20047;-77
2022/12/23 11:24:22;;;;;;;5.22;1.88;;;10.00;94.30;;;;;;5099282;28;20493;-77
2022/12/23 11:26:50;;;;;;;3.80;2.03;;;10.10;94.40;;;;;;5115940;28;20035;-77
2022/12/23 11:29:23;;;;;;;6.20;2.55;;;10.00;94.30;;;;;;5115497;28;20039;-77
2022/12/23 11:31:49;;;;;;;5.95;2.65;;;10.00;94.30;;;;;;5081742;28;20031;-77
2022/12/23 11:34:19;;;;;;;6.85;2.85;;;10.00;94.30;;;;;;5115101;28;20539;-77
2022/12/23 11:36:57;;;;;;;5.55;2.67;;;10.10;94.30;;;;;;5098340;28;20050;-77
2022/12/23 11:39:31;;;;;;;7.22;2.60;;;10.10;94.30;;;;;;5133760;28;20042;-77
2022/12/23 11:42:28;;;;;;;6.45;2.75;;;10.10;94.30;;;;;;5099554;28;20066;-77
2022/12/23 11:45:02;;;;;;;6.22;2.55;;;10.10;94.30;;;;;;5054194;28;20036;-77
2022/12/23 11:47:40;;;;;;;5.05;2.20;;;10.00;94.30;;;;;;5029794;28;20164;-77
2022/12/23 11:50:36;;;;;;;4.03;2.15;;;10.10;94.30;;;;;;4997865;28;20531;-76
2022/12/23 11:53:29;;;;;;;5.03;2.35;;;10.00;94.30;;;;;;5030540;28;20132;-78
2022/12/23 11:56:13;;;;;;;4.85;2.40;;;10.00;94.30;;;;;;4990330;28;20038;-77
2022/12/23 11:58:46;;;;;;;5.07;2.03;;;10.10;94.40;;;;;;4976303;28;20033;-77
2022/12/23 12:01:19;;;;;;;4.95;2.33;;;10.10;94.30;;;;;;4994561;28;20519;-76
2022/12/23 12:03:53;;;;;;;6.00;2.72;;;10.00;94.30;;;;;;5010867;28;20046;-77
2022/12/23 12:06:25;;;;;;;4.43;1.90;;;10.00;94.30;;;;;;4994456;28;20046;-77
2022/12/23 12:08:54;;;;;;;4.78;2.15;;;10.10;94.40;;;;;;4991066;28;20042;-77
2022/12/23 12:11:29;;;;;;;3.92;2.03;;;10.00;94.40;;;;;;4975207;28;20054;-77
2022/12/23 12:14:01;;;;;;;4.40;2.00;;;10.10;94.40;;;;;;4958851;28;20072;-77
2022/12/23 12:16:43;;;;;;;3.80;2.00;;;10.10;94.40;;;;;;5022758;28;20162;-77
2022/12/23 12:19:21;;;;;;;3.75;1.90;;;10.10;94.40;;;;;;5049746;28;20045;-78
2022/12/23 12:21:49;;;;;;;4.13;1.92;;;10.00;94.60;;;;;;5074605;28;20407;-77
2022/12/23 12:24:24;;;;;;;4.00;1.75;;;10.00;94.30;;;;;;5073558;28;20043;-77
2022/12/23 12:26:53;;;;;;;2.85;1.52;;;10.10;94.40;;;;;;5074089;28;20067;-78
2022/12/23 12:29:29;;;;;;;2.88;1.70;;;10.10;94.40;;;;;;5040263;28;20407;-78
2022/12/23 12:31:58;;;;;;;3.95;1.90;;;10.10;94.40;;;;;;5073840;28;20044;-77
2022/12/23 12:34:55;;;;;;;4.97;2.22;;;10.10;94.40;;;;;;5029648;28;20040;-77
2022/12/23 12:37:31;;;;;;;4.05;1.80;;;10.00;94.40;;;;;;5016877;28;20056;-78
2022/12/23 12:40:13;;;;;;;2.67;1.42;;;10.10;94.40;;;;;;5013749;28;20049;-78
2022/12/23 12:42:42;;;;;;;3.15;1.83;;;10.00;94.40;;;;;;5013422;28;20057;-78
2022/12/23 12:45:22;;;;;;;3.45;1.45;;;10.10;94.40;;;;;;4975284;28;20093;-78
2022/12/23 12:48:11;;;;;;;2.10;1.40;;;10.00;94.40;;;;;;5033402;28;20140;-78
2022/12/23 12:50:58;;;;;;;3.17;1.70;;;10.00;94.40;;;;;;4999160;28;20046;-77
2022/12/23 12:53:24;;;;;;;3.33;1.50;;;10.00;94.40;;;;;;5019903;28;20038;-77
2022/12/23 12:55:56;;;;;;;2.35;1.50;;;10.00;94.40;;;;;;5015071;28;20073;-77
2022/12/23 12:58:23;;;;;;;2.40;1.52;;;10.00;94.40;;;;;;5017493;28;20145;-77
2022/12/23 13:01:20;;;;;;;3.97;1.83;;;10.00;94.40;;;;;;5016946;28;20065;-76
2022/12/23 13:04:11;;;;;;;3.90;1.90;;;10.00;94.50;;;;;;5033617;28;20527;-78
2022/12/23 13:06:44;;;;;;;;;;;10.00;94.40;;;;;;5077577;28;20124;-77
2022/12/23 13:09:31;;;;;;;3.10;1.30;;;9.90;94.40;;;;;;5075191;28;19912;-77
2022/12/23 13:12:13;;;;;;;4.13;1.70;;;10.00;94.40;;;;;;5076624;28;20099;-77
2022/12/23 13:15:00;;;;;;;2.60;1.52;;;10.00;94.40;;;;;;5059690;28;20135;-76
2022/12/23 13:17:42;;;;;;;2.83;1.50;;;9.90;94.40;;;;;;5085017;28;20084;-76
2022/12/23 13:20:36;;;;;;;3.75;1.92;;;9.90;94.40;;;;;;5118003;28;20126;-77
2022/12/23 13:23:13;;;;;;;3.55;1.85;;;9.90;94.40;;;;;;5120922;28;20086;-77
2022/12/23 13:25:46;;;;;;;2.83;1.45;;;9.90;94.40;;;;;;5084876;28;20035;-77
2022/12/23 13:28:29;;;;;;;3.78;1.48;;;10.00;94.40;;;;;;5117810;28;20042;-77
2022/12/23 13:31:20;;;;;;;3.85;1.77;;;9.90;94.40;;;;;;5117801;28;20147;-77
2022/12/23 13:34:02;;;;;;;3.25;1.65;;;9.80;94.40;;;;;;5136753;28;20076;-77
2022/12/23 13:36:44;;;;;;;2.28;1.33;;;10.00;94.40;;;;;;5119912;28;20039;-77
2022/12/23 13:39:35;;;;;;;2.65;1.40;;;10.00;94.40;;;;;;5117670;28;20047;-77
2022/12/23 13:42:03;;;;;;;2.53;1.45;;;9.90;94.40;;;;;;5103261;28;20134;-78
2022/12/23 13:44:32;;;;;;;2.40;1.42;;;10.00;94.40;;;;;;5117646;28;20039;-77